Terminal Aerodrome Forecast
Issued by NWS Cleveland, OH

Home | Current Version | Previous Version | Text Only | Print | Product List | Glossary Off
Versions: 1 2 3 4 5 6 7 8 9 10 11 12 13 14 15 16

000
FTUS41 KCLE 171100
TAFMFD
TAF
KMFD 171137Z 1712/1812 28004KT 2SM BR OVC003
      TEMPO 1712/1714 4SM BR OVC008
     FM171400 31007KT P6SM BKN012
     FM171700 32008KT P6SM SCT025
     FM180000 VRB03KT P6SM SKC=

USA.gov is the U.S. government's official web portal to all federal, state and local government web resources and services.